sensor_id;sensor_type;location;lat;lon;timestamp;pressure;altitude;pressure_sealevel;temperature;humidity
41513;BME280;27244;59.940;30.280;2023-09-12T10:54:40;101380.72;;;22.60;56.20
41513;BME280;27244;59.940;30.280;2023-09-12T10:57:11;101373.03;;;22.67;55.54
41513;BME280;27244;59.940;30.280;2023-09-12T11:00:09;101388.81;;;22.88;55.15
41513;BME280;27244;59.940;30.280;2023-09-12T11:02:38;101382.47;;;22.80;54.65
41513;BME280;27244;59.940;30.280;2023-09-12T11:05:06;101384.03;;;22.85;54.91
41513;BME280;27244;59.940;30.280;2023-09-12T11:07:44;101379.91;;;22.93;54.84
41513;BME280;27244;59.940;30.280;2023-09-12T11:10:21;101381.06;;;22.95;54.61
41513;BME280;27244;59.940;30.280;2023-09-12T11:12:49;101380.72;;;22.90;54.65
41513;BME280;27244;59.940;30.280;2023-09-12T11:15:18;101375.91;;;22.90;54.50
41513;BME280;27244;59.940;30.280;2023-09-12T11:17:46;101374.34;;;22.89;54.37
41513;BME280;27244;59.940;30.280;2023-09-12T11:20:14;101369.47;;;22.90;54.59
41513;BME280;27244;59.940;30.280;2023-09-12T11:22:43;101364.66;;;22.90;54.17
41513;BME280;27244;59.940;30.280;2023-09-12T11:25:22;101374.13;;;23.03;54.22
41513;BME280;27244;59.940;30.280;2023-09-12T11:28:08;101357.72;;;22.98;54.12
41513;BME280;27244;59.940;30.280;2023-09-12T11:30:36;101375.81;;;22.97;54.15
41513;BME280;27244;59.940;30.280;2023-09-12T11:33:04;101371.78;;;22.98;54.17
41513;BME280;27244;59.940;30.280;2023-09-12T11:35:37;101367.69;;;23.03;54.04
41513;BME280;27244;59.940;30.280;2023-09-12T11:38:09;101366.91;;;23.02;54.03
41513;BME280;27244;59.940;30.280;2023-09-12T11:40:45;101367.19;;;23.08;54.04
41513;BME280;27244;59.940;30.280;2023-09-12T11:43:20;101360.34;;;23.09;53.73
41513;BME280;27244;59.940;30.280;2023-09-12T11:45:49;101364.50;;;23.01;53.76
41513;BME280;27244;59.940;30.280;2023-09-12T11:48:17;101358.88;;;23.01;53.66
41513;BME280;27244;59.940;30.280;2023-09-12T11:50:49;101356.38;;;23.07;53.78
41513;BME280;27244;59.940;30.280;2023-09-12T11:53:19;101353.97;;;23.05;53.67
41513;BME280;27244;59.940;30.280;2023-09-12T11:55:49;101343.53;;;23.05;53.58
41513;BME280;27244;59.940;30.280;2023-09-12T11:58:18;101347.19;;;23.02;53.57
41513;BME280;27244;59.940;30.280;2023-09-12T12:00:45;101341.97;;;23.01;53.79
41513;BME280;27244;59.940;30.280;2023-09-12T12:03:13;101344.38;;;23.02;53.49
41513;BME280;27244;59.940;30.280;2023-09-12T12:05:40;101351.59;;;23.03;53.57
41513;BME280;27244;59.940;30.280;2023-09-12T12:08:08;101337.91;;;23.05;53.46
41513;BME280;27244;59.940;30.280;2023-09-12T12:10:35;101345.94;;;23.07;53.53
41513;BME280;27244;59.940;30.280;2023-09-12T12:13:05;101343.13;;;23.07;53.39
41513;BME280;27244;59.940;30.280;2023-09-12T12:15:32;101340.72;;;23.05;53.32
41513;BME280;27244;59.940;30.280;2023-09-12T12:17:59;101351.56;;;23.07;53.40
41513;BME280;27244;59.940;30.280;2023-09-12T12:20:26;101333.88;;;23.07;53.28
41513;BME280;27244;59.940;30.280;2023-09-12T12:22:55;101336.69;;;23.07;53.48
41513;BME280;27244;59.940;30.280;2023-09-12T12:25:22;101342.31;;;23.07;53.41
41513;BME280;27244;59.940;30.280;2023-09-12T12:27:50;101337.91;;;23.05;53.32
41513;BME280;27244;59.940;30.280;2023-09-12T12:30:19;101349.09;;;23.09;53.51
41513;BME280;27244;59.940;30.280;2023-09-12T12:32:46;101345.94;;;23.07;53.89
41513;BME280;27244;59.940;30.280;2023-09-12T12:35:18;101339.38;;;23.14;54.58
41513;BME280;27244;59.940;30.280;2023-09-12T12:37:48;101336.97;;;23.12;54.99
41513;BME280;27244;59.940;30.280;2023-09-12T12:40:16;101344.28;;;23.10;55.84
41513;BME280;27244;59.940;30.280;2023-09-12T12:42:44;101332.66;;;23.08;56.30
41513;BME280;27244;59.940;30.280;2023-09-12T12:45:13;101339.00;;;23.12;56.93
41513;BME280;27244;59.940;30.280;2023-09-12T12:47:42;101330.94;;;23.14;56.83
41513;BME280;27244;59.940;30.280;2023-09-12T12:50:11;101332.53;;;23.15;56.51
41513;BME280;27244;59.940;30.280;2023-09-12T12:52:38;101335.34;;;23.15;56.88
41513;BME280;27244;59.940;30.280;2023-09-12T12:55:06;101332.53;;;23.15;57.16
41513;BME280;27244;59.940;30.280;2023-09-12T12:57:36;101334.06;;;23.19;57.93
41513;BME280;27244;59.940;30.280;2023-09-12T13:00:07;101330.41;;;23.22;58.47
41513;BME280;27244;59.940;30.280;2023-09-12T13:02:36;101332.03;;;23.20;58.67
41513;BME280;27244;59.940;30.280;2023-09-12T13:05:19;101329.00;;;23.34;57.57
41513;BME280;27244;59.940;30.280;2023-09-12T13:07:47;101325.56;;;23.23;57.65
41513;BME280;27244;59.940;30.280;2023-09-12T13:10:14;101317.91;;;23.23;57.99
41513;BME280;27244;59.940;30.280;2023-09-12T13:12:41;101331.19;;;23.23;57.46
41513;BME280;27244;59.940;30.280;2023-09-12T13:15:11;101323.97;;;23.22;57.12
41513;BME280;27244;59.940;30.280;2023-09-12T13:17:38;101315.09;;;23.23;56.99
41513;BME280;27244;59.940;30.280;2023-09-12T13:20:08;101328.31;;;23.26;57.04
41513;BME280;27244;59.940;30.280;2023-09-12T13:22:35;101319.91;;;23.23;57.28
41513;BME280;27244;59.940;30.280;2023-09-12T13:25:03;101314.28;;;23.23;57.21
41513;BME280;27244;59.940;30.280;2023-09-12T13:27:30;101313.53;;;23.22;57.18
41513;BME280;27244;59.940;30.280;2023-09-12T13:29:57;101325.13;;;23.24;57.23
41513;BME280;27244;59.940;30.280;2023-09-12T13:32:24;101328.75;;;23.25;57.31
41513;BME280;27244;59.940;30.280;2023-09-12T13:34:52;101319.88;;;23.26;57.31
41513;BME280;27244;59.940;30.280;2023-09-12T13:37:21;101327.53;;;23.26;57.28
41513;BME280;27244;59.940;30.280;2023-09-12T13:39:48;101319.50;;;23.24;57.40
41513;BME280;27244;59.940;30.280;2023-09-12T13:42:16;101321.91;;;23.26;57.17
41513;BME280;27244;59.940;30.280;2023-09-12T13:44:45;101319.09;;;23.26;57.24
41513;BME280;27244;59.940;30.280;2023-09-12T13:47:12;101324.34;;;23.24;57.12
41513;BME280;27244;59.940;30.280;2023-09-12T13:49:39;101321.09;;;23.25;56.92
41513;BME280;27244;59.940;30.280;2023-09-12T13:52:06;101323.13;;;23.25;57.31
41513;BME280;27244;59.940;30.280;2023-09-12T13:54:34;101323.47;;;23.27;57.20
41513;BME280;27244;59.940;30.280;2023-09-12T13:57:02;101323.13;;;23.25;57.11
41513;BME280;27244;59.940;30.280;2023-09-12T13:59:29;101321.16;;;23.22;57.12
41513;BME280;27244;59.940;30.280;2023-09-12T14:01:56;101324.72;;;23.26;56.76
41513;BME280;27244;59.940;30.280;2023-09-12T14:04:23;101321.91;;;23.26;56.95
41513;BME280;27244;59.940;30.280;2023-09-12T14:06:50;101323.47;;;23.27;57.23
41513;BME280;27244;59.940;30.280;2023-09-12T14:09:17;101322.69;;;23.26;57.71
41513;BME280;27244;59.940;30.280;2023-09-12T14:11:45;101308.19;;;23.28;58.58
41513;BME280;27244;59.940;30.280;2023-09-12T14:14:13;101314.19;;;23.30;59.28
41513;BME280;27244;59.940;30.280;2023-09-12T14:16:40;101311.75;;;23.32;59.95
41513;BME280;27244;59.940;30.280;2023-09-12T14:19:07;101310.53;;;23.33;59.67
41513;BME280;27244;59.940;30.280;2023-09-12T14:21:36;101311.28;;;23.33;59.88
41513;BME280;27244;59.940;30.280;2023-09-12T14:24:03;101312.09;;;23.34;59.46
41513;BME280;27244;59.940;30.280;2023-09-12T14:26:30;101306.13;;;23.32;58.96
41513;BME280;27244;59.940;30.280;2023-09-12T14:28:59;101310.09;;;23.34;59.74
41513;BME280;27244;59.940;30.280;2023-09-12T14:31:26;101310.09;;;23.34;60.52
41513;BME280;27244;59.940;30.280;2023-09-12T14:33:53;101299.28;;;23.33;60.36
41513;BME280;27244;59.940;30.280;2023-09-12T14:36:29;101314.06;;;23.37;60.00
41513;BME280;27244;59.940;30.280;2023-09-12T14:39:11;101303.13;;;23.42;59.75
41513;BME280;27244;59.940;30.280;2023-09-12T14:41:42;101315.66;;;23.38;59.10
41513;BME280;27244;59.940;30.280;2023-09-12T14:44:11;101311.63;;;23.39;59.37
41513;BME280;27244;59.940;30.280;2023-09-12T14:46:38;101311.22;;;23.37;58.98
41513;BME280;27244;59.940;30.280;2023-09-12T14:49:05;101310.47;;;23.36;58.70
41513;BME280;27244;59.940;30.280;2023-09-12T14:51:32;101308.41;;;23.37;58.44
41513;BME280;27244;59.940;30.280;2023-09-12T14:53:59;101308.41;;;23.37;57.81
41513;BME280;27244;59.940;30.280;2023-09-12T14:56:26;101306.13;;;23.32;57.89
41513;BME280;27244;59.940;30.280;2023-09-12T14:58:53;101310.47;;;23.36;57.95
41513;BME280;27244;59.940;30.280;2023-09-12T15:01:22;101308.41;;;23.37;57.69
41513;BME280;27244;59.940;30.280;2023-09-12T15:03:50;101308.41;;;23.37;58.00
41513;BME280;27244;59.940;30.280;2023-09-12T15:06:17;101312.47;;;23.36;57.81
41513;BME280;27244;59.940;30.280;2023-09-12T15:08:44;101315.66;;;23.38;58.30
41513;BME280;27244;59.940;30.280;2023-09-12T15:11:12;101314.06;;;23.37;58.09
41513;BME280;27244;59.940;30.280;2023-09-12T15:13:39;101312.47;;;23.36;57.78
41513;BME280;27244;59.940;30.280;2023-09-12T15:16:06;101309.66;;;23.36;57.42
41513;BME280;27244;59.940;30.280;2023-09-12T15:18:34;101313.28;;;23.36;57.31
41513;BME280;27244;59.940;30.280;2023-09-12T15:21:03;101315.72;;;23.34;57.26
41513;BME280;27244;59.940;30.280;2023-09-12T15:23:30;101313.34;;;23.33;56.97
41513;BME280;27244;59.940;30.280;2023-09-12T15:25:58;101314.13;;;23.33;56.78
41513;BME280;27244;59.940;30.280;2023-09-12T15:28:28;101312.47;;;23.36;56.63
41513;BME280;27244;59.940;30.280;2023-09-12T15:30:55;101316.56;;;23.31;56.43
41513;BME280;27244;59.940;30.280;2023-09-12T15:33:22;101311.34;;;23.30;56.46
41513;BME280;27244;59.940;30.280;2023-09-12T15:35:50;101316.16;;;23.33;56.90
41513;BME280;27244;59.940;30.280;2023-09-12T15:38:17;101322.56;;;23.33;57.32
41513;BME280;27244;59.940;30.280;2023-09-12T15:40:45;101321.84;;;23.29;57.19
41513;BME280;27244;59.940;30.280;2023-09-12T15:43:12;101314.91;;;23.34;57.37
41513;BME280;27244;59.940;30.280;2023-09-12T15:45:39;101313.75;;;23.31;57.33
41513;BME280;27244;59.940;30.280;2023-09-12T15:48:06;101319.31;;;23.35;57.31
41513;BME280;27244;59.940;30.280;2023-09-12T15:50:33;101317.31;;;23.35;57.12
41513;BME280;27244;59.940;30.280;2023-09-12T15:53:02;101319.69;;;23.37;56.96
41513;BME280;27244;59.940;30.280;2023-09-12T15:55:29;101319.69;;;23.37;57.01
41513;BME280;27244;59.940;30.280;2023-09-12T15:57:59;101323.69;;;23.39;57.12
41513;BME280;27244;59.940;30.280;2023-09-12T16:00:26;101316.88;;;23.37;57.12
41513;BME280;27244;59.940;30.280;2023-09-12T16:02:56;101326.13;;;23.37;56.96
41513;BME280;27244;59.940;30.280;2023-09-12T16:05:23;101326.91;;;23.38;56.76
41513;BME280;27244;59.940;30.280;2023-09-12T16:07:50;101330.53;;;23.38;56.85
41513;BME280;27244;59.940;30.280;2023-09-12T16:10:19;101334.50;;;23.41;56.82
41513;BME280;27244;59.940;30.280;2023-09-12T16:12:46;101330.91;;;23.40;56.84
41513;BME280;27244;59.940;30.280;2023-09-12T16:15:13;101332.50;;;23.41;56.98
41513;BME280;27244;59.940;30.280;2023-09-12T16:17:41;101333.31;;;23.42;56.62
41513;BME280;27244;59.940;30.280;2023-09-12T16:20:09;101327.69;;;23.42;56.70
41513;BME280;27244;59.940;30.280;2023-09-12T16:22:38;101328.88;;;23.41;56.65
41513;BME280;27244;59.940;30.280;2023-09-12T16:25:06;101328.47;;;23.42;56.67
41513;BME280;27244;59.940;30.280;2023-09-12T16:27:35;101328.47;;;23.42;56.60
41513;BME280;27244;59.940;30.280;2023-09-12T16:30:03;101322.84;;;23.42;56.49
41513;BME280;27244;59.940;30.280;2023-09-12T16:32:33;101328.06;;;23.44;56.48
41513;BME280;27244;59.940;30.280;2023-09-12T16:35:00;101312.41;;;23.39;56.65
41513;BME280;27244;59.940;30.280;2023-09-12T16:37:27;101327.25;;;23.43;56.45
41513;BME280;27244;59.940;30.280;2023-09-12T16:39:54;101324.88;;;23.42;56.50
41513;BME280;27244;59.940;30.280;2023-09-12T16:42:22;101320.41;;;23.41;56.63
41513;BME280;27244;59.940;30.280;2023-09-12T16:44:50;101322.00;;;23.45;56.40
41513;BME280;27244;59.940;30.280;2023-09-12T16:47:17;101320.03;;;23.42;56.60
41513;BME280;27244;59.940;30.280;2023-09-12T16:49:45;101322.09;;;23.38;56.55
41513;BME280;27244;59.940;30.280;2023-09-12T16:52:12;101310.03;;;23.38;56.43
41513;BME280;27244;59.940;30.280;2023-09-12T16:54:39;101320.06;;;23.39;56.21
41513;BME280;27244;59.940;30.280;2023-09-12T16:57:07;101326.88;;;23.41;56.25
41513;BME280;27244;59.940;30.280;2023-09-12T16:59:38;101317.25;;;23.39;56.06
41513;BME280;27244;59.940;30.280;2023-09-12T17:02:09;101323.66;;;23.43;56.05
41513;BME280;27244;59.940;30.280;2023-09-12T17:04:40;101320.41;;;23.41;56.06
41513;BME280;27244;59.940;30.280;2023-09-12T17:07:08;101317.66;;;23.37;56.07
41513;BME280;27244;59.940;30.280;2023-09-12T17:09:44;101325.66;;;23.42;55.78
41513;BME280;27244;59.940;30.280;2023-09-12T17:12:11;101319.66;;;23.40;55.85
41513;BME280;27244;59.940;30.280;2023-09-12T17:14:40;101320.88;;;23.39;55.73
41513;BME280;27244;59.940;30.280;2023-09-12T17:17:09;101320.88;;;23.39;55.87
41513;BME280;27244;59.940;30.280;2023-09-12T17:19:36;101322.88;;;23.39;55.66
41513;BME280;27244;59.940;30.280;2023-09-12T17:22:03;101306.84;;;23.36;55.74
41513;BME280;27244;59.940;30.280;2023-09-12T17:24:30;101320.47;;;23.37;55.55
41513;BME280;27244;59.940;30.280;2023-09-12T17:26:59;101317.66;;;23.37;55.65
41513;BME280;27244;59.940;30.280;2023-09-12T17:29:26;101321.28;;;23.38;55.66
41513;BME280;27244;59.940;30.280;2023-09-12T17:31:53;101319.69;;;23.37;55.66
41513;BME280;27244;59.940;30.280;2023-09-12T17:34:37;101315.13;;;23.46;55.40
41513;BME280;27244;59.940;30.280;2023-09-12T17:37:05;101320.47;;;23.37;55.46
41513;BME280;27244;59.940;30.280;2023-09-12T17:39:32;101311.22;;;23.37;55.32
41513;BME280;27244;59.940;30.280;2023-09-12T17:41:59;101316.88;;;23.37;55.38
41513;BME280;27244;59.940;30.280;2023-09-12T17:44:29;101308.47;;;23.33;55.79
41513;BME280;27244;59.940;30.280;2023-09-12T17:46:56;101308.06;;;23.35;55.96
41513;BME280;27244;59.940;30.280;2023-09-12T17:49:26;101317.25;;;23.39;56.53
41513;BME280;27244;59.940;30.280;2023-09-12T17:51:53;101318.91;;;23.36;56.36
41513;BME280;27244;59.940;30.280;2023-09-12T17:54:20;101310.47;;;23.36;56.62
41513;BME280;27244;59.940;30.280;2023-09-12T17:56:48;101310.09;;;23.34;56.51
41513;BME280;27244;59.940;30.280;2023-09-12T17:59:17;101309.28;;;23.34;56.63
41513;BME280;27244;59.940;30.280;2023-09-12T18:01:45;101318.47;;;23.38;56.31
41513;BME280;27244;59.940;30.280;2023-09-12T18:04:12;101317.66;;;23.37;56.76
41513;BME280;27244;59.940;30.280;2023-09-12T18:06:41;101314.44;;;23.39;56.33
41513;BME280;27244;59.940;30.280;2023-09-12T18:09:08;101316.44;;;23.38;56.07
41513;BME280;27244;59.940;30.280;2023-09-12T18:11:35;101314.44;;;23.39;56.17
41513;BME280;27244;59.940;30.280;2023-09-12T18:14:03;101314.03;;;23.40;55.86
41513;BME280;27244;59.940;30.280;2023-09-12T18:16:32;101298.03;;;23.34;56.24
41513;BME280;27244;59.940;30.280;2023-09-12T18:19:16;101313.78;;;23.55;55.90
41513;BME280;27244;59.940;30.280;2023-09-12T18:21:53;101298.75;;;23.38;56.15
41513;BME280;27244;59.940;30.280;2023-09-12T18:24:20;101300.31;;;23.42;55.84
41513;BME280;27244;59.940;30.280;2023-09-12T18:26:47;101309.16;;;23.41;56.00
41513;BME280;27244;59.940;30.280;2023-09-12T18:29:14;101310.38;;;23.43;56.07
41513;BME280;27244;59.940;30.280;2023-09-12T18:31:43;101306.75;;;23.43;56.15
41513;BME280;27244;59.940;30.280;2023-09-12T18:34:11;101311.94;;;23.44;56.28
41513;BME280;27244;59.940;30.280;2023-09-12T18:36:38;101306.75;;;23.43;56.18
41513;BME280;27244;59.940;30.280;2023-09-12T18:39:07;101293.19;;;23.34;56.14
41513;BME280;27244;59.940;30.280;2023-09-12T18:41:36;101306.69;;;23.46;56.03
41513;BME280;27244;59.940;30.280;2023-09-12T18:44:03;101297.09;;;23.44;55.96
41513;BME280;27244;59.940;30.280;2023-09-12T18:46:30;101297.09;;;23.44;55.96
41513;BME280;27244;59.940;30.280;2023-09-12T18:48:57;101297.09;;;23.44;56.05
41513;BME280;27244;59.940;30.280;2023-09-12T18:51:25;101307.09;;;23.45;56.11
41513;BME280;27244;59.940;30.280;2023-09-12T18:53:52;101309.06;;;23.48;56.21
41513;BME280;27244;59.940;30.280;2023-09-12T18:56:21;101300.19;;;23.49;56.06
41513;BME280;27244;59.940;30.280;2023-09-12T18:58:49;101292.63;;;23.46;56.08
41513;BME280;27244;59.940;30.280;2023-09-12T19:01:19;101308.66;;;23.49;55.90
41513;BME280;27244;59.940;30.280;2023-09-12T19:03:46;101307.84;;;23.49;55.94
41513;BME280;27244;59.940;30.280;2023-09-12T19:06:13;101296.31;;;23.40;55.93
41513;BME280;27244;59.940;30.280;2023-09-12T19:08:40;101310.25;;;23.50;56.03
41513;BME280;27244;59.940;30.280;2023-09-12T19:11:11;101311.41;;;23.53;55.92
41513;BME280;27244;59.940;30.280;2023-09-12T19:13:42;101308.59;;;23.53;55.92
41513;BME280;27244;59.940;30.280;2023-09-12T19:16:09;101308.22;;;23.51;56.04
41513;BME280;27244;59.940;30.280;2023-09-12T19:18:37;101309.00;;;23.51;55.88
41513;BME280;27244;59.940;30.280;2023-09-12T19:21:04;101308.22;;;23.51;55.99
41513;BME280;27244;59.940;30.280;2023-09-12T19:23:32;101314.63;;;23.51;55.89
41513;BME280;27244;59.940;30.280;2023-09-12T19:25:59;101308.22;;;23.51;55.89
41513;BME280;27244;59.940;30.280;2023-09-12T19:28:26;101320.25;;;23.51;55.88
41513;BME280;27244;59.940;30.280;2023-09-12T19:30:54;101315.81;;;23.54;55.80
41513;BME280;27244;59.940;30.280;2023-09-12T19:33:22;101315.44;;;23.52;55.63
41513;BME280;27244;59.940;30.280;2023-09-12T19:35:49;101308.59;;;23.53;55.90
41513;BME280;27244;59.940;30.280;2023-09-12T19:38:16;101315.81;;;23.54;55.68
41513;BME280;27244;59.940;30.280;2023-09-12T19:40:43;101302.22;;;23.49;56.05
41513;BME280;27244;59.940;30.280;2023-09-12T19:43:10;101309.38;;;23.53;55.83
41513;BME280;27244;59.940;30.280;2023-09-12T19:45:39;101314.56;;;23.55;55.88
41513;BME280;27244;59.940;30.280;2023-09-12T19:48:12;101308.44;;;23.60;55.71
41513;BME280;27244;59.940;30.280;2023-09-12T19:50:39;101313.00;;;23.54;55.79
41513;BME280;27244;59.940;30.280;2023-09-12T19:53:07;101315.38;;;23.56;55.89
41513;BME280;27244;59.940;30.280;2023-09-12T19:55:35;101317.84;;;23.53;55.67
41513;BME280;27244;59.940;30.280;2023-09-12T19:58:02;101314.56;;;23.55;55.81
41513;BME280;27244;59.940;30.280;2023-09-12T20:00:29;101318.19;;;23.56;55.74
41513;BME280;27244;59.940;30.280;2023-09-12T20:02:57;101321.78;;;23.56;55.74
41513;BME280;27244;59.940;30.280;2023-09-12T20:05:26;101320.13;;;23.59;55.63
41513;BME280;27244;59.940;30.280;2023-09-12T20:07:53;101318.97;;;23.56;55.78
41513;BME280;27244;59.940;30.280;2023-09-12T20:10:20;101320.59;;;23.57;55.67
41513;BME280;27244;59.940;30.280;2023-09-12T20:12:49;101313.72;;;23.58;55.67
41513;BME280;27244;59.940;30.280;2023-09-12T20:15:16;101307.38;;;23.54;55.75
41513;BME280;27244;59.940;30.280;2023-09-12T20:17:46;101313.66;;;23.62;55.92
41513;BME280;27244;59.940;30.280;2023-09-12T20:20:14;101316.53;;;23.58;55.60
41513;BME280;27244;59.940;30.280;2023-09-12T20:22:43;101302.47;;;23.58;55.51
41513;BME280;27244;59.940;30.280;2023-09-12T20:25:14;101312.13;;;23.57;55.47
41513;BME280;27244;59.940;30.280;2023-09-12T20:27:41;101304.91;;;23.56;55.53
41513;BME280;27244;59.940;30.280;2023-09-12T20:30:09;101302.59;;;23.51;55.65
41513;BME280;27244;59.940;30.280;2023-09-12T20:32:36;101308.09;;;23.58;55.66
41513;BME280;27244;59.940;30.280;2023-09-12T20:35:04;101319.38;;;23.58;55.65
41513;BME280;27244;59.940;30.280;2023-09-12T20:37:32;101309.66;;;23.59;55.70
41513;BME280;27244;59.940;30.280;2023-09-12T20:40:00;101319.72;;;23.60;55.76
41513;BME280;27244;59.940;30.280;2023-09-12T20:42:28;101312.47;;;23.59;55.85
41513;BME280;27244;59.940;30.280;2023-09-12T20:44:55;101314.09;;;23.60;55.59
41513;BME280;27244;59.940;30.280;2023-09-12T20:47:22;101305.28;;;23.58;55.70
41513;BME280;27244;59.940;30.280;2023-09-12T20:49:49;101308.09;;;23.58;55.83
41513;BME280;27244;59.940;30.280;2023-09-12T20:52:19;101304.03;;;23.59;55.33
41513;BME280;27244;59.940;30.280;2023-09-12T20:54:46;101310.06;;;23.61;55.66
41513;BME280;27244;59.940;30.280;2023-09-12T20:57:15;101311.19;;;23.64;55.36
41513;BME280;27244;59.940;30.280;2023-09-12T20:59:42;101309.66;;;23.59;55.38
41513;BME280;27244;59.940;30.280;2023-09-12T21:02:09;101305.22;;;23.62;55.71
41513;BME280;27244;59.940;30.280;2023-09-12T21:04:36;101303.63;;;23.61;55.70
41513;BME280;27244;59.940;30.280;2023-09-12T21:07:03;101312.41;;;23.63;55.56
41513;BME280;27244;59.940;30.280;2023-09-12T21:09:30;101307.59;;;23.63;55.47
41513;BME280;27244;59.940;30.280;2023-09-12T21:11:58;101313.22;;;23.63;55.61
41513;BME280;27244;59.940;30.280;2023-09-12T21:14:30;101305.16;;;23.65;55.55
41513;BME280;27244;59.940;30.280;2023-09-12T21:16:57;101313.22;;;23.63;55.63
41513;BME280;27244;59.940;30.280;2023-09-12T21:19:25;101315.22;;;23.63;55.50
41513;BME280;27244;59.940;30.280;2023-09-12T21:21:52;101320.09;;;23.62;56.38
41513;BME280;27244;59.940;30.280;2023-09-12T21:24:19;101324.13;;;23.61;56.85
41513;BME280;27244;59.940;30.280;2023-09-12T21:26:46;101320.09;;;23.62;56.98
41513;BME280;27244;59.940;30.280;2023-09-12T21:29:13;101316.47;;;23.62;57.04
41513;BME280;27244;59.940;30.280;2023-09-12T21:31:42;101314.81;;;23.64;57.06
41513;BME280;27244;59.940;30.280;2023-09-12T21:34:09;101323.34;;;23.61;57.00
41513;BME280;27244;59.940;30.280;2023-09-12T21:36:36;101325.72;;;23.62;57.15
41513;BME280;27244;59.940;30.280;2023-09-12T21:39:04;101324.13;;;23.61;57.02
41513;BME280;27244;59.940;30.280;2023-09-12T21:41:31;101326.50;;;23.63;57.38
41513;BME280;27244;59.940;30.280;2023-09-12T21:43:58;101315.69;;;23.61;57.12
41513;BME280;27244;59.940;30.280;2023-09-12T21:46:25;101320.09;;;23.62;57.37
41513;BME280;27244;59.940;30.280;2023-09-12T21:48:53;101313.22;;;23.63;57.02
41513;BME280;27244;59.940;30.280;2023-09-12T21:51:20;101312.88;;;23.61;57.30
41513;BME280;27244;59.940;30.280;2023-09-12T21:53:47;101319.28;;;23.62;57.31
41513;BME280;27244;59.940;30.280;2023-09-12T21:56:15;101308.03;;;23.62;57.31
41513;BME280;27244;59.940;30.280;2023-09-12T21:58:42;101307.31;;;23.58;57.62
41513;BME280;27244;59.940;30.280;2023-09-12T22:01:09;101317.28;;;23.62;57.86
41513;BME280;27244;59.940;30.280;2023-09-12T22:03:36;101324.47;;;23.63;57.63
41513;BME280;27244;59.940;30.280;2023-09-12T22:06:05;101320.44;;;23.64;57.14
41513;BME280;27244;59.940;30.280;2023-09-12T22:08:32;101314.88;;;23.61;57.74
41513;BME280;27244;59.940;30.280;2023-09-12T22:10:59;101324.13;;;23.61;57.85
41513;BME280;27244;59.940;30.280;2023-09-12T22:13:27;101321.31;;;23.61;57.67
41513;BME280;27244;59.940;30.280;2023-09-12T22:15:54;101322.53;;;23.60;57.38
41513;BME280;27244;59.940;30.280;2023-09-12T22:18:21;101322.53;;;23.60;56.83
41513;BME280;27244;59.940;30.280;2023-09-12T22:20:50;101321.38;;;23.58;56.44
41513;BME280;27244;59.940;30.280;2023-09-12T22:23:19;101326.94;;;23.61;55.99
41513;BME280;27244;59.940;30.280;2023-09-12T22:25:46;101324.53;;;23.60;55.69
41513;BME280;27244;59.940;30.280;2023-09-12T22:28:13;101320.50;;;23.61;55.62
41513;BME280;27244;59.940;30.280;2023-09-12T22:30:40;101324.53;;;23.60;55.98
41513;BME280;27244;59.940;30.280;2023-09-12T22:33:07;101326.16;;;23.61;55.65
41513;BME280;27244;59.940;30.280;2023-09-12T22:35:36;101322.53;;;23.60;55.79
41513;BME280;27244;59.940;30.280;2023-09-12T22:38:03;101317.69;;;23.61;55.90
41513;BME280;27244;59.940;30.280;2023-09-12T22:40:31;101314.47;;;23.62;55.83
41513;BME280;27244;59.940;30.280;2023-09-12T22:42:58;101311.25;;;23.60;55.92
41513;BME280;27244;59.940;30.280;2023-09-12T22:45:25;101308.84;;;23.62;55.84
41513;BME280;27244;59.940;30.280;2023-09-12T22:47:53;101318.84;;;23.63;55.94
41513;BME280;27244;59.940;30.280;2023-09-12T22:50:20;101314.47;;;23.62;55.80
41513;BME280;27244;59.940;30.280;2023-09-12T22:52:47;101311.66;;;23.62;55.85
41513;BME280;27244;59.940;30.280;2023-09-12T22:55:14;101300.38;;;23.62;55.69
41513;BME280;27244;59.940;30.280;2023-09-12T22:57:42;101309.19;;;23.64;55.96
41513;BME280;27244;59.940;30.280;2023-09-12T23:00:10;101302.41;;;23.62;56.07
41513;BME280;27244;59.940;30.280;2023-09-12T23:02:40;101305.16;;;23.65;56.01
41513;BME280;27244;59.940;30.280;2023-09-12T23:05:07;101302.34;;;23.65;55.95
41513;BME280;27244;59.940;30.280;2023-09-12T23:07:34;101307.97;;;23.65;55.79
41513;BME280;27244;59.940;30.280;2023-09-12T23:10:02;101300.00;;;23.60;55.71
41513;BME280;27244;59.940;30.280;2023-09-12T23:12:30;101303.91;;;23.66;55.99
41513;BME280;27244;59.940;30.280;2023-09-12T23:14:58;101301.09;;;23.66;55.94
41513;BME280;27244;59.940;30.280;2023-09-12T23:17:25;101293.44;;;23.67;55.85
41513;BME280;27244;59.940;30.280;2023-09-12T23:19:53;101305.50;;;23.67;55.92
41513;BME280;27244;59.940;30.280;2023-09-12T23:22:20;101291.06;;;23.65;56.07
41513;BME280;27244;59.940;30.280;2023-09-12T23:24:47;101295.84;;;23.68;55.74
41513;BME280;27244;59.940;30.280;2023-09-12T23:27:23;101298.88;;;23.77;55.85
41513;BME280;27244;59.940;30.280;2023-09-12T23:29:50;101289.41;;;23.68;55.86
41513;BME280;27244;59.940;30.280;2023-09-12T23:32:19;101289.75;;;23.70;55.90
41513;BME280;27244;59.940;30.280;2023-09-12T23:34:46;101286.94;;;23.70;55.83
41513;BME280;27244;59.940;30.280;2023-09-12T23:37:13;101288.19;;;23.69;55.70
41513;BME280;27244;59.940;30.280;2023-09-12T23:39:40;101279.81;;;23.65;55.92